sensor_id;sensor_type;location;lat;lon;timestamp;pressure;altitude;pressure_sealevel;temperature;humidity
15007;BME280;7599;50.748;13.142;2023-03-17T00:00:56;95702.88;;;10.54;61.42
15007;BME280;7599;50.748;13.142;2023-03-17T00:03:59;95700.25;;;10.54;61.74
15007;BME280;7599;50.748;13.142;2023-03-17T00:07:04;95710.78;;;10.54;61.63
15007;BME280;7599;50.748;13.142;2023-03-17T00:10:12;95701.88;;;10.55;61.50
15007;BME280;7599;50.748;13.142;2023-03-17T00:13:17;95708.16;;;10.54;61.58
15007;BME280;7599;50.748;13.142;2023-03-17T00:16:22;95695.00;;;10.54;61.30
15007;BME280;7599;50.748;13.142;2023-03-17T00:19:28;95701.88;;;10.55;61.57
15007;BME280;7599;50.748;13.142;2023-03-17T00:22:32;95688.94;;;10.53;61.71
15007;BME280;7599;50.748;13.142;2023-03-17T00:25:35;95692.38;;;10.54;61.61
15007;BME280;7599;50.748;13.142;2023-03-17T00:28:40;95684.47;;;10.54;61.45
15007;BME280;7599;50.748;13.142;2023-03-17T00:31:43;95690.53;;;10.54;61.62
15007;BME280;7599;50.748;13.142;2023-03-17T00:34:46;95684.25;;;10.55;61.33
15007;BME280;7599;50.748;13.142;2023-03-17T00:37:50;95679.22;;;10.54;61.51
15007;BME280;7599;50.748;13.142;2023-03-17T00:40:54;95673.97;;;10.54;61.55
15007;BME280;7599;50.748;13.142;2023-03-17T00:43:58;95686.09;;;10.55;61.48
15007;BME280;7599;50.748;13.142;2023-03-17T00:47:00;95672.13;;;10.54;61.52
15007;BME280;7599;50.748;13.142;2023-03-17T00:50:04;95669.50;;;10.54;61.65
15007;BME280;7599;50.748;13.142;2023-03-17T00:53:09;95666.88;;;10.54;61.43
15007;BME280;7599;50.748;13.142;2023-03-17T00:56:15;95662.63;;;10.53;61.72
15007;BME280;7599;50.748;13.142;2023-03-17T00:59:23;95651.88;;;10.55;61.41
15007;BME280;7599;50.748;13.142;2023-03-17T01:02:27;95644.00;;;10.55;61.34
15007;BME280;7599;50.748;13.142;2023-03-17T01:05:30;95643.19;;;10.54;61.49
15007;BME280;7599;50.748;13.142;2023-03-17T01:08:33;95638.16;;;10.53;61.67
15007;BME280;7599;50.748;13.142;2023-03-17T01:11:36;95642.41;;;10.54;61.20
15007;BME280;7599;50.748;13.142;2023-03-17T01:14:40;95630.28;;;10.53;61.48
15007;BME280;7599;50.748;13.142;2023-03-17T01:17:44;95635.31;;;10.54;61.70
15007;BME280;7599;50.748;13.142;2023-03-17T01:20:47;95634.50;;;10.54;61.22
15007;BME280;7599;50.748;13.142;2023-03-17T01:23:50;95626.63;;;10.54;61.22
15007;BME280;7599;50.748;13.142;2023-03-17T01:26:52;95610.03;;;10.53;61.19
15007;BME280;7599;50.748;13.142;2023-03-17T01:29:56;95605.56;;;10.54;61.51
15007;BME280;7599;50.748;13.142;2023-03-17T01:32:59;95601.13;;;10.54;61.06
15007;BME280;7599;50.748;13.142;2023-03-17T01:36:01;95595.84;;;10.54;61.38
15007;BME280;7599;50.748;13.142;2023-03-17T01:39:04;95596.66;;;10.55;61.34
15007;BME280;7599;50.748;13.142;2023-03-17T01:42:07;95597.69;;;10.54;61.20
15007;BME280;7599;50.748;13.142;2023-03-17T01:48:53;95594.03;;;10.55;61.22
15007;BME280;7599;50.748;13.142;2023-03-17T01:52:02;95593.22;;;10.54;61.10
15007;BME280;7599;50.748;13.142;2023-03-17T01:55:08;95600.09;;;10.55;61.11
15007;BME280;7599;50.748;13.142;2023-03-17T01:58:13;95591.38;;;10.55;61.28
15007;BME280;7599;50.748;13.142;2023-03-17T02:01:19;95574.81;;;10.54;61.25
15007;BME280;7599;50.748;13.142;2023-03-17T02:04:24;95571.94;;;10.56;61.00
15007;BME280;7599;50.748;13.142;2023-03-17T02:07:27;95574.00;;;10.54;61.22
15007;BME280;7599;50.748;13.142;2023-03-17T02:10:30;95569.53;;;10.54;61.34
15007;BME280;7599;50.748;13.142;2023-03-17T02:13:33;95570.34;;;10.55;61.38
15007;BME280;7599;50.748;13.142;2023-03-17T02:16:36;95565.09;;;10.55;61.33
15007;BME280;7599;50.748;13.142;2023-03-17T02:19:40;95570.34;;;10.55;61.28
15007;BME280;7599;50.748;13.142;2023-03-17T02:22:46;95564.28;;;10.54;61.24
15007;BME280;7599;50.748;13.142;2023-03-17T02:25:51;95580.88;;;10.55;61.19
15007;BME280;7599;50.748;13.142;2023-03-17T02:28:56;95575.38;;;10.57;60.96
15007;BME280;7599;50.748;13.142;2023-03-17T02:31:58;95569.53;;;10.54;61.21
15007;BME280;7599;50.748;13.142;2023-03-17T02:35:01;95578.25;;;10.55;61.27
15007;BME280;7599;50.748;13.142;2023-03-17T02:38:07;95567.94;;;10.53;61.11
15007;BME280;7599;50.748;13.142;2023-03-17T02:41:10;95577.66;;;10.53;61.05
15007;BME280;7599;50.748;13.142;2023-03-17T02:44:12;95570.56;;;10.53;61.18
15007;BME280;7599;50.748;13.142;2023-03-17T02:47:15;95568.75;;;10.54;61.34
15007;BME280;7599;50.748;13.142;2023-03-17T02:50:20;95562.47;;;10.55;61.01
15007;BME280;7599;50.748;13.142;2023-03-17T02:53:25;95564.28;;;10.54;61.11
15007;BME280;7599;50.748;13.142;2023-03-17T02:56:27;95559.03;;;10.54;60.88
15007;BME280;7599;50.748;13.142;2023-03-17T02:59:30;95559.84;;;10.55;61.28
15007;BME280;7599;50.748;13.142;2023-03-17T03:02:33;95555.38;;;10.55;60.84
15007;BME280;7599;50.748;13.142;2023-03-17T03:05:36;95551.94;;;10.55;60.86
15007;BME280;7599;50.748;13.142;2023-03-17T03:08:42;95549.31;;;10.55;61.05
15007;BME280;7599;50.748;13.142;2023-03-17T03:11:45;95540.38;;;10.56;60.88
15007;BME280;7599;50.748;13.142;2023-03-17T03:14:48;95533.53;;;10.55;60.85
15007;BME280;7599;50.748;13.142;2023-03-17T03:17:51;95529.06;;;10.55;60.80
15007;BME280;7599;50.748;13.142;2023-03-17T03:20:53;95530.09;;;10.54;61.09
15007;BME280;7599;50.748;13.142;2023-03-17T03:23:57;95540.38;;;10.56;61.17
15007;BME280;7599;50.748;13.142;2023-03-17T03:27:00;95540.38;;;10.56;61.10
15007;BME280;7599;50.748;13.142;2023-03-17T03:30:03;95544.84;;;10.55;61.02
15007;BME280;7599;50.748;13.142;2023-03-17T03:33:09;95549.31;;;10.55;60.65
15007;BME280;7599;50.748;13.142;2023-03-17T03:36:13;95553.53;;;10.56;61.06
15007;BME280;7599;50.748;13.142;2023-03-17T03:39:16;95556.16;;;10.56;60.83
15007;BME280;7599;50.748;13.142;2023-03-17T03:42:19;95550.91;;;10.56;60.98
15007;BME280;7599;50.748;13.142;2023-03-17T03:45:22;95556.16;;;10.56;60.86
15007;BME280;7599;50.748;13.142;2023-03-17T03:48:25;95545.66;;;10.56;60.56
15007;BME280;7599;50.748;13.142;2023-03-17T03:51:28;95549.09;;;10.57;61.21
15007;BME280;7599;50.748;13.142;2023-03-17T03:54:32;95535.94;;;10.57;61.00
15007;BME280;7599;50.748;13.142;2023-03-17T03:57:35;95533.28;;;10.57;60.77
15007;BME280;7599;50.748;13.142;2023-03-17T04:00:37;95532.50;;;10.56;61.12
15007;BME280;7599;50.748;13.142;2023-03-17T04:03:40;95537.75;;;10.56;60.81
15007;BME280;7599;50.748;13.142;2023-03-17T04:06:43;95529.88;;;10.56;60.96
15007;BME280;7599;50.748;13.142;2023-03-17T04:09:48;95537.53;;;10.58;60.91
15007;BME280;7599;50.748;13.142;2023-03-17T04:12:51;95532.50;;;10.56;60.85
15007;BME280;7599;50.748;13.142;2023-03-17T04:15:53;95536.72;;;10.57;60.83
15007;BME280;7599;50.748;13.142;2023-03-17T04:18:56;95530.66;;;10.57;61.01
15007;BME280;7599;50.748;13.142;2023-03-17T04:21:59;95528.84;;;10.57;60.75
15007;BME280;7599;50.748;13.142;2023-03-17T04:25:04;95531.47;;;10.57;60.65
15007;BME280;7599;50.748;13.142;2023-03-17T04:28:07;95543.59;;;10.58;60.71
15007;BME280;7599;50.748;13.142;2023-03-17T04:31:11;95534.91;;;10.58;60.97
15007;BME280;7599;50.748;13.142;2023-03-17T04:34:15;95540.97;;;10.58;60.43
15007;BME280;7599;50.748;13.142;2023-03-17T04:37:18;95540.97;;;10.58;60.81
15007;BME280;7599;50.748;13.142;2023-03-17T04:40:23;95551.25;;;10.60;60.69
15007;BME280;7599;50.748;13.142;2023-03-17T04:43:26;95538.34;;;10.58;60.87
15007;BME280;7599;50.748;13.142;2023-03-17T04:46:28;95522.56;;;10.58;60.96
15007;BME280;7599;50.748;13.142;2023-03-17T04:49:31;95521.53;;;10.59;60.82
15007;BME280;7599;50.748;13.142;2023-03-17T04:52:34;95512.03;;;10.58;60.63
15007;BME280;7599;50.748;13.142;2023-03-17T04:55:39;95499.69;;;10.59;60.63
15007;BME280;7599;50.748;13.142;2023-03-17T04:58:42;95490.97;;;10.58;60.77
15007;BME280;7599;50.748;13.142;2023-03-17T05:01:45;95478.63;;;10.59;60.70
15007;BME280;7599;50.748;13.142;2023-03-17T05:04:48;95470.75;;;10.59;61.23
15007;BME280;7599;50.748;13.142;2023-03-17T05:07:50;95474.16;;;10.59;60.93
15007;BME280;7599;50.748;13.142;2023-03-17T05:10:55;95481.50;;;10.57;60.84
15007;BME280;7599;50.748;13.142;2023-03-17T05:13:58;95481.50;;;10.57;60.74
15007;BME280;7599;50.748;13.142;2023-03-17T05:17:01;95477.03;;;10.58;60.75
15007;BME280;7599;50.748;13.142;2023-03-17T05:20:05;95493.63;;;10.58;60.53
15007;BME280;7599;50.748;13.142;2023-03-17T05:23:08;95489.38;;;10.57;60.77
15007;BME280;7599;50.748;13.142;2023-03-17T05:26:13;95490.97;;;10.58;60.67
15007;BME280;7599;50.748;13.142;2023-03-17T05:29:16;95505.16;;;10.57;60.74
15007;BME280;7599;50.748;13.142;2023-03-17T05:32:19;95501.50;;;10.58;60.79
15007;BME280;7599;50.748;13.142;2023-03-17T05:35:21;95507.00;;;10.57;60.50
15007;BME280;7599;50.748;13.142;2023-03-17T05:38:24;95509.63;;;10.57;60.63
15007;BME280;7599;50.748;13.142;2023-03-17T05:41:29;95505.97;;;10.58;60.58
15007;BME280;7599;50.748;13.142;2023-03-17T05:44:32;95503.56;;;10.56;60.54
15007;BME280;7599;50.748;13.142;2023-03-17T05:47:35;95504.38;;;10.57;60.40
15007;BME280;7599;50.748;13.142;2023-03-17T05:50:38;95506.41;;;10.54;60.37
15007;BME280;7599;50.748;13.142;2023-03-17T05:53:41;95500.38;;;10.54;59.97
15007;BME280;7599;50.748;13.142;2023-03-17T05:56:46;95508.25;;;10.54;60.57
15007;BME280;7599;50.748;13.142;2023-03-17T05:59:49;95504.59;;;10.55;60.75
15007;BME280;7599;50.748;13.142;2023-03-17T06:02:52;95503.00;;;10.54;60.50
15007;BME280;7599;50.748;13.142;2023-03-17T06:05:54;95507.22;;;10.55;60.25
15007;BME280;7599;50.748;13.142;2023-03-17T06:08:57;95506.41;;;10.54;60.45
15007;BME280;7599;50.748;13.142;2023-03-17T06:12:01;95512.72;;;10.53;60.43
15007;BME280;7599;50.748;13.142;2023-03-17T06:15:05;95511.69;;;10.54;60.34
15007;BME280;7599;50.748;13.142;2023-03-17T06:18:08;95510.09;;;10.53;60.38
15007;BME280;7599;50.748;13.142;2023-03-17T06:21:11;95508.25;;;10.54;60.32
15007;BME280;7599;50.748;13.142;2023-03-17T06:24:14;95516.16;;;10.54;60.43
15007;BME280;7599;50.748;13.142;2023-03-17T06:27:18;95513.50;;;10.54;60.17
15007;BME280;7599;50.748;13.142;2023-03-17T06:30:21;95522.19;;;10.54;60.21
15007;BME280;7599;50.748;13.142;2023-03-17T06:33:24;95511.69;;;10.54;60.07
15007;BME280;7599;50.748;13.142;2023-03-17T06:36:27;95514.53;;;10.53;60.25
15007;BME280;7599;50.748;13.142;2023-03-17T06:39:30;95517.16;;;10.53;60.34
15007;BME280;7599;50.748;13.142;2023-03-17T06:42:34;95524.25;;;10.52;60.26
15007;BME280;7599;50.748;13.142;2023-03-17T06:45:38;95528.72;;;10.52;60.18
15007;BME280;7599;50.748;13.142;2023-03-17T06:48:41;95518.78;;;10.54;59.96
15007;BME280;7599;50.748;13.142;2023-03-17T06:51:44;95517.16;;;10.53;60.18
15007;BME280;7599;50.748;13.142;2023-03-17T06:54:48;95510.09;;;10.53;60.29
15007;BME280;7599;50.748;13.142;2023-03-17T06:57:52;95516.16;;;10.54;60.34
15007;BME280;7599;50.748;13.142;2023-03-17T07:00:55;95499.78;;;10.52;60.08
15007;BME280;7599;50.748;13.142;2023-03-17T07:04:00;95501.38;;;10.53;59.87
15007;BME280;7599;50.748;13.142;2023-03-17T07:07:02;95511.13;;;10.52;60.20
15007;BME280;7599;50.748;13.142;2023-03-17T07:10:06;95501.84;;;10.50;60.10
15007;BME280;7599;50.748;13.142;2023-03-17T07:13:16;95493.97;;;10.50;60.33
15007;BME280;7599;50.748;13.142;2023-03-17T07:16:31;95501.84;;;10.50;59.85
15007;BME280;7599;50.748;13.142;2023-03-17T07:19:56;95498.19;;;10.51;60.15
15007;BME280;7599;50.748;13.142;2023-03-17T07:23:17;95486.06;;;10.50;60.22
15007;BME280;7599;50.748;13.142;2023-03-17T07:26:22;95483.44;;;10.50;60.27
15007;BME280;7599;50.748;13.142;2023-03-17T07:33:01;95491.31;;;10.50;60.08
15007;BME280;7599;50.748;13.142;2023-03-17T07:36:07;95491.91;;;10.52;59.88
15007;BME280;7599;50.748;13.142;2023-03-17T07:39:11;95491.91;;;10.52;59.89
15007;BME280;7599;50.748;13.142;2023-03-17T07:42:14;95501.06;;;10.49;60.04
15007;BME280;7599;50.748;13.142;2023-03-17T07:45:21;95503.72;;;10.49;59.95
15007;BME280;7599;50.748;13.142;2023-03-17T07:48:25;95506.09;;;10.51;60.22
15007;BME280;7599;50.748;13.142;2023-03-17T07:51:28;95499.00;;;10.51;59.85
15007;BME280;7599;50.748;13.142;2023-03-17T07:54:31;95502.66;;;10.50;59.80
15007;BME280;7599;50.748;13.142;2023-03-17T07:57:34;95500.81;;;10.51;59.78
15007;BME280;7599;50.748;13.142;2023-03-17T08:00:37;95489.50;;;10.50;60.01
15007;BME280;7599;50.748;13.142;2023-03-17T08:03:41;95489.50;;;10.50;59.69
15007;BME280;7599;50.748;13.142;2023-03-17T08:06:44;95492.94;;;10.51;59.76
15007;BME280;7599;50.748;13.142;2023-03-17T08:09:47;95491.09;;;10.51;59.69
15007;BME280;7599;50.748;13.142;2023-03-17T08:12:49;95479.78;;;10.51;59.90
15007;BME280;7599;50.748;13.142;2023-03-17T08:15:53;95484.00;;;10.52;59.93
15007;BME280;7599;50.748;13.142;2023-03-17T08:18:58;95483.22;;;10.51;59.69
15007;BME280;7599;50.748;13.142;2023-03-17T08:22:01;95485.03;;;10.51;59.75
15007;BME280;7599;50.748;13.142;2023-03-17T08:25:04;95482.41;;;10.51;59.88
15007;BME280;7599;50.748;13.142;2023-03-17T08:28:07;95477.16;;;10.51;59.97
15007;BME280;7599;50.748;13.142;2023-03-17T08:31:11;95472.69;;;10.51;60.01
15007;BME280;7599;50.748;13.142;2023-03-17T08:34:16;95471.44;;;10.54;59.81
15007;BME280;7599;50.748;13.142;2023-03-17T08:37:19;95459.53;;;10.51;59.64
15007;BME280;7599;50.748;13.142;2023-03-17T08:40:22;95457.94;;;10.50;59.65
15007;BME280;7599;50.748;13.142;2023-03-17T08:43:25;95441.94;;;10.52;59.76
15007;BME280;7599;50.748;13.142;2023-03-17T08:46:30;95461.94;;;10.53;59.73
15007;BME280;7599;50.748;13.142;2023-03-17T08:49:34;95462.97;;;10.52;59.46
15007;BME280;7599;50.748;13.142;2023-03-17T08:52:37;95464.81;;;10.51;59.84
15007;BME280;7599;50.748;13.142;2023-03-17T08:55:41;95470.84;;;10.52;59.75
15007;BME280;7599;50.748;13.142;2023-03-17T08:58:44;95479.78;;;10.51;59.92
15007;BME280;7599;50.748;13.142;2023-03-17T09:01:47;95488.47;;;10.51;59.98
15007;BME280;7599;50.748;13.142;2023-03-17T09:04:51;95491.91;;;10.52;59.84
15007;BME280;7599;50.748;13.142;2023-03-17T09:07:54;95497.16;;;10.52;59.92
15007;BME280;7599;50.748;13.142;2023-03-17T09:10:57;95485.84;;;10.51;59.79
15007;BME280;7599;50.748;13.142;2023-03-17T09:14:00;95491.09;;;10.51;60.09
15007;BME280;7599;50.748;13.142;2023-03-17T09:17:03;95472.47;;;10.53;59.92
15007;BME280;7599;50.748;13.142;2023-03-17T09:20:09;95469.25;;;10.51;60.19
15007;BME280;7599;50.748;13.142;2023-03-17T09:23:12;95465.38;;;10.53;59.86
15007;BME280;7599;50.748;13.142;2023-03-17T09:26:16;95458.50;;;10.52;59.81
15007;BME280;7599;50.748;13.142;2023-03-17T09:29:19;95475.31;;;10.51;59.76
15007;BME280;7599;50.748;13.142;2023-03-17T09:32:22;95482.19;;;10.52;59.81
15007;BME280;7599;50.748;13.142;2023-03-17T09:35:26;95489.84;;;10.54;59.71
15007;BME280;7599;50.748;13.142;2023-03-17T09:38:31;95494.31;;;10.53;60.00
15007;BME280;7599;50.748;13.142;2023-03-17T09:41:48;95503.78;;;10.54;59.83
15007;BME280;7599;50.748;13.142;2023-03-17T09:45:10;95503.78;;;10.54;59.81
15007;BME280;7599;50.748;13.142;2023-03-17T09:48:39;95500.38;;;10.54;59.92
15007;BME280;7599;50.748;13.142;2023-03-17T09:51:48;95497.72;;;10.54;60.05
15007;BME280;7599;50.748;13.142;2023-03-17T09:54:51;95495.91;;;10.54;59.76
15007;BME280;7599;50.748;13.142;2023-03-17T09:57:55;95494.66;;;10.57;59.93
15007;BME280;7599;50.748;13.142;2023-03-17T10:01:02;95496.81;;;10.60;60.17
15007;BME280;7599;50.748;13.142;2023-03-17T10:04:07;95487.09;;;10.61;60.59
15007;BME280;7599;50.748;13.142;2023-03-17T10:07:15;95489.16;;;10.59;60.24
15007;BME280;7599;50.748;13.142;2023-03-17T10:10:25;95487.31;;;10.59;60.11
15007;BME280;7599;50.748;13.142;2023-03-17T10:13:42;95484.94;;;10.58;60.08
15007;BME280;7599;50.748;13.142;2023-03-17T10:16:51;95482.28;;;10.58;60.37
15007;BME280;7599;50.748;13.142;2023-03-17T10:19:57;95488.59;;;10.57;60.42
15007;BME280;7599;50.748;13.142;2023-03-17T10:23:06;95487.78;;;10.56;60.47
15007;BME280;7599;50.748;13.142;2023-03-17T10:26:19;95481.50;;;10.57;60.35
15007;BME280;7599;50.748;13.142;2023-03-17T10:29:24;95480.13;;;10.54;60.36
15007;BME280;7599;50.748;13.142;2023-03-17T10:32:29;95473.59;;;10.57;60.63
15007;BME280;7599;50.748;13.142;2023-03-17T10:35:32;95478.88;;;10.57;60.49
15007;BME280;7599;50.748;13.142;2023-03-17T10:38:38;95477.25;;;10.56;60.48
15007;BME280;7599;50.748;13.142;2023-03-17T10:41:47;95478.88;;;10.57;60.21
15007;BME280;7599;50.748;13.142;2023-03-17T10:44:55;95473.84;;;10.55;60.35
15007;BME280;7599;50.748;13.142;2023-03-17T10:48:00;95466.75;;;10.56;60.34
15007;BME280;7599;50.748;13.142;2023-03-17T10:51:06;95465.94;;;10.55;60.46
15007;BME280;7599;50.748;13.142;2023-03-17T10:54:17;95469.38;;;10.56;60.41
15007;BME280;7599;50.748;13.142;2023-03-17T10:57:20;95464.34;;;10.54;60.33
15007;BME280;7599;50.748;13.142;2023-03-17T11:00:25;95469.38;;;10.56;60.23
15007;BME280;7599;50.748;13.142;2023-03-17T11:03:32;95476.47;;;10.55;60.30
15007;BME280;7599;50.748;13.142;2023-03-17T11:06:41;95466.97;;;10.54;60.22
15007;BME280;7599;50.748;13.142;2023-03-17T11:09:49;95483.31;;;10.57;60.45
15007;BME280;7599;50.748;13.142;2023-03-17T11:12:57;95484.34;;;10.55;60.17
15007;BME280;7599;50.748;13.142;2023-03-17T11:16:07;95471.19;;;10.55;60.31
15007;BME280;7599;50.748;13.142;2023-03-17T11:19:13;95471.19;;;10.55;60.54
15007;BME280;7599;50.748;13.142;2023-03-17T11:22:23;95486.97;;;10.55;60.36
15007;BME280;7599;50.748;13.142;2023-03-17T11:25:31;95469.38;;;10.56;60.46
15007;BME280;7599;50.748;13.142;2023-03-17T11:28:38;95469.38;;;10.56;60.54
15007;BME280;7599;50.748;13.142;2023-03-17T11:31:45;95469.38;;;10.56;60.44
15007;BME280;7599;50.748;13.142;2023-03-17T11:35:04;95458.84;;;10.56;60.35
15007;BME280;7599;50.748;13.142;2023-03-17T11:43:39;95464.91;;;10.57;60.43
15007;BME280;7599;50.748;13.142;2023-03-17T11:55:22;95465.13;;;10.55;60.37
15007;BME280;7599;50.748;13.142;2023-03-17T11:58:35;95459.06;;;10.54;60.53
15007;BME280;7599;50.748;13.142;2023-03-17T12:01:47;95452.78;;;10.55;60.43
15007;BME280;7599;50.748;13.142;2023-03-17T12:04:57;95452.78;;;10.55;60.36
15007;BME280;7599;50.748;13.142;2023-03-17T12:08:04;95450.97;;;10.56;60.45
15007;BME280;7599;50.748;13.142;2023-03-17T12:11:13;95451.53;;;10.58;60.33
15007;BME280;7599;50.748;13.142;2023-03-17T12:14:24;95451.53;;;10.58;60.51
15007;BME280;7599;50.748;13.142;2023-03-17T12:17:32;95437.56;;;10.58;60.54
15007;BME280;7599;50.748;13.142;2023-03-17T12:20:41;95426.03;;;10.59;60.67
15007;BME280;7599;50.748;13.142;2023-03-17T12:23:49;95416.53;;;10.58;60.58
15007;BME280;7599;50.748;13.142;2023-03-17T12:26:55;95417.34;;;10.58;60.55
15007;BME280;7599;50.748;13.142;2023-03-17T12:30:04;95412.06;;;10.58;60.53
15007;BME280;7599;50.748;13.142;2023-03-17T12:33:16;95400.75;;;10.58;60.56
15007;BME280;7599;50.748;13.142;2023-03-17T12:36:22;95407.63;;;10.59;60.66
15007;BME280;7599;50.748;13.142;2023-03-17T12:39:28;95398.69;;;10.60;60.61
15007;BME280;7599;50.748;13.142;2023-03-17T12:42:37;95397.09;;;10.59;60.69
15007;BME280;7599;50.748;13.142;2023-03-17T12:45:59;95409.75;;;10.62;60.48
15007;BME280;7599;50.748;13.142;2023-03-17T12:49:23;95397.91;;;10.59;60.58
15007;BME280;7599;50.748;13.142;2023-03-17T12:52:41;95397.66;;;10.61;60.72
15007;BME280;7599;50.748;13.142;2023-03-17T12:55:50;95390.00;;;10.59;60.74
15007;BME280;7599;50.748;13.142;2023-03-17T12:58:58;95385.28;;;10.61;60.69
15007;BME280;7599;50.748;13.142;2023-03-17T13:02:15;95379.25;;;10.61;60.96
15007;BME280;7599;50.748;13.142;2023-03-17T13:05:29;95384.50;;;10.61;60.71
15007;BME280;7599;50.748;13.142;2023-03-17T13:08:36;95377.38;;;10.61;60.84
15007;BME280;7599;50.748;13.142;2023-03-17T13:11:47;95368.72;;;10.61;60.78
15007;BME280;7599;50.748;13.142;2023-03-17T13:14:50;95366.88;;;10.61;60.76
15007;BME280;7599;50.748;13.142;2023-03-17T13:18:22;95365.84;;;10.62;60.77
15007;BME280;7599;50.748;13.142;2023-03-17T13:21:25;95366.09;;;10.61;60.54
15007;BME280;7599;50.748;13.142;2023-03-17T13:24:39;95364.25;;;10.61;60.68
15007;BME280;7599;50.748;13.142;2023-03-17T13:27:44;95368.72;;;10.61;60.67
15007;BME280;7599;50.748;13.142;2023-03-17T13:30:57;95358.97;;;10.61;60.68
15007;BME280;7599;50.748;13.142;2023-03-17T13:34:11;95365.84;;;10.62;60.53
15007;BME280;7599;50.748;13.142;2023-03-17T13:37:22;95366.88;;;10.61;60.51
15007;BME280;7599;50.748;13.142;2023-03-17T13:40:34;95364.25;;;10.61;60.82
15007;BME280;7599;50.748;13.142;2023-03-17T13:43:49;95361.59;;;10.61;60.72
15007;BME280;7599;50.748;13.142;2023-03-17T13:46:53;95358.97;;;10.61;60.55
15007;BME280;7599;50.748;13.142;2023-03-17T13:50:00;95364.25;;;10.61;60.40
15007;BME280;7599;50.748;13.142;2023-03-17T13:53:06;95375.56;;;10.62;60.53
15007;BME280;7599;50.748;13.142;2023-03-17T13:56:15;95372.13;;;10.61;60.59
15007;BME280;7599;50.748;13.142;2023-03-17T13:59:23;95384.25;;;10.62;61.01
15007;BME280;7599;50.748;13.142;2023-03-17T14:02:36;95373.72;;;10.62;60.73
15007;BME280;7599;50.748;13.142;2023-03-17T14:05:45;95374.53;;;10.63;60.85
15007;BME280;7599;50.748;13.142;2023-03-17T14:08:51;95376.34;;;10.62;60.55
15007;BME280;7599;50.748;13.142;2023-03-17T14:11:57;95370.28;;;10.62;60.98
15007;BME280;7599;50.748;13.142;2023-03-17T14:15:03;95364.81;;;10.63;60.85
15007;BME280;7599;50.748;13.142;2023-03-17T14:18:14;95367.44;;;10.63;60.86
15007;BME280;7599;50.748;13.142;2023-03-17T14:21:21;95359.78;;;10.62;61.18
15007;BME280;7599;50.748;13.142;2023-03-17T14:24:28;95363.22;;;10.62;61.05
15007;BME280;7599;50.748;13.142;2023-03-17T14:27:32;95364.81;;;10.63;60.91
15007;BME280;7599;50.748;13.142;2023-03-17T14:30:38;95364.81;;;10.63;61.33
15007;BME280;7599;50.748;13.142;2023-03-17T14:33:40;95364.81;;;10.63;61.10
15007;BME280;7599;50.748;13.142;2023-03-17T14:36:44;95354.28;;;10.63;61.24
15007;BME280;7599;50.748;13.142;2023-03-17T14:39:49;95354.28;;;10.63;60.98
15007;BME280;7599;50.748;13.142;2023-03-17T14:42:52;95355.88;;;10.64;61.22
15007;BME280;7599;50.748;13.142;2023-03-17T14:45:58;95356.69;;;10.65;61.40
15007;BME280;7599;50.748;13.142;2023-03-17T14:49:03;95360.34;;;10.64;61.18
15007;BME280;7599;50.748;13.142;2023-03-17T14:52:18;95357.47;;;10.65;61.08
15007;BME280;7599;50.748;13.142;2023-03-17T14:55:28;95352.44;;;10.64;61.29
15007;BME280;7599;50.748;13.142;2023-03-17T14:58:38;95357.47;;;10.65;61.18
15007;BME280;7599;50.748;13.142;2023-03-17T15:01:43;95362.75;;;10.65;61.35
15007;BME280;7599;50.748;13.142;2023-03-17T15:04:51;95354.84;;;10.65;61.28
15007;BME280;7599;50.748;13.142;2023-03-17T15:07:56;95363.31;;;10.67;61.35
15007;BME280;7599;50.748;13.142;2023-03-17T15:11:00;95351.19;;;10.66;61.60
15007;BME280;7599;50.748;13.142;2023-03-17T15:14:09;95352.00;;;10.67;61.32
15007;BME280;7599;50.748;13.142;2023-03-17T15:17:17;95353.59;;;10.68;61.33
15007;BME280;7599;50.748;13.142;2023-03-17T15:20:21;95346.72;;;10.67;61.43
15007;BME280;7599;50.748;13.142;2023-03-17T15:23:28;95335.16;;;10.68;61.65
15007;BME280;7599;50.748;13.142;2023-03-17T15:26:31;95341.47;;;10.67;61.45
15007;BME280;7599;50.748;13.142;2023-03-17T15:29:33;95331.75;;;10.67;61.43
15007;BME280;7599;50.748;13.142;2023-03-17T15:32:37;95333.56;;;10.67;61.68
15007;BME280;7599;50.748;13.142;2023-03-17T15:35:41;95329.91;;;10.68;61.42
15007;BME280;7599;50.748;13.142;2023-03-17T15:38:45;95332.31;;;10.69;61.51
15007;BME280;7599;50.748;13.142;2023-03-17T15:41:48;95325.44;;;10.68;61.40
15007;BME280;7599;50.748;13.142;2023-03-17T15:44:51;95326.25;;;10.69;61.88
15007;BME280;7599;50.748;13.142;2023-03-17T15:47:54;95340.19;;;10.69;61.53
15007;BME280;7599;50.748;13.142;2023-03-17T15:50:58;95329.69;;;10.69;61.24
15007;BME280;7599;50.748;13.142;2023-03-17T15:54:03;95331.28;;;10.70;61.56
15007;BME280;7599;50.748;13.142;2023-03-17T15:57:07;95326.00;;;10.70;61.73
15007;BME280;7599;50.748;13.142;2023-03-17T16:00:14;95329.44;;;10.71;61.52
15007;BME280;7599;50.748;13.142;2023-03-17T16:03:23;95318.13;;;10.70;61.58
15007;BME280;7599;50.748;13.142;2023-03-17T16:06:29;95315.50;;;10.70;61.86
15007;BME280;7599;50.748;13.142;2023-03-17T16:09:32;95313.66;;;10.71;61.64
15007;BME280;7599;50.748;13.142;2023-03-17T16:12:36;95319.72;;;10.71;61.86
15007;BME280;7599;50.748;13.142;2023-03-17T16:15:40;95311.03;;;10.71;61.80
15007;BME280;7599;50.748;13.142;2023-03-17T16:18:44;95307.66;;;10.75;61.56
15007;BME280;7599;50.748;13.142;2023-03-17T16:21:47;95312.78;;;10.82;61.18
15007;BME280;7599;50.748;13.142;2023-03-17T16:24:51;95311.25;;;10.86;61.32
15007;BME280;7599;50.748;13.142;2023-03-17T16:27:55;95306.09;;;10.91;61.74
15007;BME280;7599;50.748;13.142;2023-03-17T16:31:00;95310.09;;;10.94;61.09
15007;BME280;7599;50.748;13.142;2023-03-17T16:34:13;95306.41;;;10.95;60.94
15007;BME280;7599;50.748;13.142;2023-03-17T16:37:16;95306.16;;;10.96;61.03
15007;BME280;7599;50.748;13.142;2023-03-17T16:40:23;95307.50;;;10.99;60.85
15007;BME280;7599;50.748;13.142;2023-03-17T16:43:30;95298.34;;;11.01;61.34